N1829P SKBO-TJSJ
Flight info
| Callsign | N1829P |
|---|---|
| Flight time | 2h 5m |
| Altitude | 39000 |
| Route | OSUSU4R KOVBU UW1 ENPUT UG431 STB UL450 ABA UG885 BEXER UL325 SCAPA L325 JOSHE JOSHE3 |
| Aircraft | C750/M-SBDE3FGHRWXY/S |
Departure
| Time | 2026-05-04 01:39 |
|---|---|
| Airport | El Dorado International Airport (SKBO) |
Arrival
| Time | 2026-05-04 03:44 |
|---|---|
| Airport | Luis Munoz Marin International Airport (TJSJ) |
| Time | Latitude | Longitude | Altitude | Speed | Heading |
|---|---|---|---|---|---|
| 2026-05-04 01:21 | 4.69046 | -74.12711 | 8339 ft | 0 kts | 34° |
| 2026-05-04 01:25 | 4.69047 | -74.12711 | 8366 ft | 1 kts | 34° |
| 2026-05-04 01:25 | 4.69061 | -74.12700 | 8366 ft | 4 kts | 37° |
| 2026-05-04 01:26 | 4.69093 | -74.12688 | 8368 ft | 7 kts | 348° |
| 2026-05-04 01:26 | 4.69124 | -74.12715 | 8369 ft | 6 kts | 310° |
| 2026-05-04 01:26 | 4.69145 | -74.12742 | 8369 ft | 5 kts | 307° |
| 2026-05-04 01:26 | 4.69173 | -74.12779 | 8369 ft | 9 kts | 309° |
| 2026-05-04 01:27 | 4.69218 | -74.12836 | 8369 ft | 12 kts | 308° |
| 2026-05-04 01:27 | 4.69273 | -74.12905 | 8369 ft | 14 kts | 305° |
| 2026-05-04 01:27 | 4.69327 | -74.12990 | 8369 ft | 14 kts | 306° |
| 2026-05-04 01:27 | 4.69379 | -74.13061 | 8369 ft | 12 kts | 307° |
| 2026-05-04 01:28 | 4.69423 | -74.13119 | 8369 ft | 9 kts | 305° |
| 2026-05-04 01:28 | 4.69458 | -74.13168 | 8369 ft | 10 kts | 307° |
| 2026-05-04 01:28 | 4.69515 | -74.13242 | 8369 ft | 17 kts | 308° |
| 2026-05-04 01:28 | 4.69599 | -74.13351 | 8369 ft | 20 kts | 309° |
| 2026-05-04 01:29 | 4.69667 | -74.13440 | 8369 ft | 16 kts | 305° |
| 2026-05-04 01:29 | 4.69736 | -74.13533 | 8370 ft | 17 kts | 307° |
| 2026-05-04 01:29 | 4.69820 | -74.13603 | 8369 ft | 15 kts | 14° |
| 2026-05-04 01:29 | 4.69901 | -74.13634 | 8369 ft | 15 kts | 307° |
| 2026-05-04 01:30 | 4.69971 | -74.13728 | 8369 ft | 20 kts | 307° |
| 2026-05-04 01:30 | 4.70055 | -74.13839 | 8369 ft | 19 kts | 306° |
| 2026-05-04 01:30 | 4.70132 | -74.13941 | 8369 ft | 17 kts | 306° |
| 2026-05-04 01:30 | 4.70205 | -74.14036 | 8369 ft | 18 kts | 307° |
| 2026-05-04 01:31 | 4.70289 | -74.14148 | 8369 ft | 20 kts | 307° |
| 2026-05-04 01:31 | 4.70368 | -74.14253 | 8369 ft | 17 kts | 307° |
| 2026-05-04 01:31 | 4.70433 | -74.14337 | 8369 ft | 14 kts | 308° |
| 2026-05-04 01:31 | 4.70487 | -74.14408 | 8370 ft | 14 kts | 308° |
| 2026-05-04 01:32 | 4.70561 | -74.14507 | 8370 ft | 19 kts | 306° |
| 2026-05-04 01:32 | 4.70638 | -74.14611 | 8370 ft | 18 kts | 305° |
| 2026-05-04 01:32 | 4.70715 | -74.14710 | 8370 ft | 18 kts | 308° |
| 2026-05-04 01:32 | 4.70788 | -74.14807 | 8369 ft | 17 kts | 307° |
| 2026-05-04 01:33 | 4.70860 | -74.14902 | 8369 ft | 17 kts | 307° |
| 2026-05-04 01:33 | 4.70930 | -74.14995 | 8369 ft | 17 kts | 307° |
| 2026-05-04 01:33 | 4.70999 | -74.15086 | 8369 ft | 16 kts | 307° |
| 2026-05-04 01:33 | 4.71063 | -74.15172 | 8370 ft | 14 kts | 307° |
| 2026-05-04 01:34 | 4.71116 | -74.15243 | 8370 ft | 11 kts | 307° |
| 2026-05-04 01:34 | 4.71163 | -74.15296 | 8370 ft | 9 kts | 326° |
| 2026-05-04 01:34 | 4.71215 | -74.15303 | 8370 ft | 7 kts | 8° |
| 2026-05-04 01:34 | 4.71240 | -74.15293 | 8370 ft | 0 kts | 38° |
| 2026-05-04 01:37 | 4.71241 | -74.15292 | 8370 ft | 2 kts | 38° |
| 2026-05-04 01:37 | 4.71278 | -74.15259 | 8369 ft | 13 kts | 44° |
| 2026-05-04 01:38 | 4.71323 | -74.15195 | 8367 ft | 8 kts | 85° |
| 2026-05-04 01:38 | 4.71312 | -74.15173 | 8367 ft | 0 kts | 127° |
| 2026-05-04 01:38 | 4.71291 | -74.15145 | 8367 ft | 29 kts | 128° |
| 2026-05-04 01:38 | 4.70964 | -74.14713 | 8367 ft | 123 kts | 127° |
| 2026-05-04 01:39 | 4.70332 | -74.13874 | 8393 ft | 172 kts | 127° |
| 2026-05-04 01:39 | 4.69586 | -74.12867 | 8763 ft | 192 kts | 127° |
| 2026-05-04 01:39 | 4.68776 | -74.11780 | 9133 ft | 192 kts | 123° |
| 2026-05-04 01:39 | 4.68335 | -74.10543 | 9531 ft | 194 kts | 93° |
| 2026-05-04 01:40 | 4.68713 | -74.09226 | 9875 ft | 210 kts | 56° |
| 2026-05-04 01:40 | 4.69865 | -74.08250 | 10305 ft | 226 kts | 29° |
| 2026-05-04 01:40 | 4.71446 | -74.07874 | 10536 ft | 244 kts | 0° |
| 2026-05-04 01:40 | 4.72558 | -74.07978 | 10812 ft | 242 kts | 356° |
| 2026-05-04 01:41 | 4.74716 | -74.07877 | 11840 ft | 217 kts | 13° |
| 2026-05-04 01:41 | 4.75673 | -74.07631 | 12269 ft | 214 kts | 20° |
| 2026-05-04 01:41 | 4.77108 | -74.07084 | 12632 ft | 232 kts | 26° |
| 2026-05-04 01:41 | 4.78647 | -74.06479 | 13226 ft | 238 kts | 23° |
| 2026-05-04 01:42 | 4.80194 | -74.05981 | 14230 ft | 227 kts | 21° |
| 2026-05-04 01:42 | 4.81691 | -74.05564 | 15051 ft | 223 kts | 20° |
| 2026-05-04 01:42 | 4.83215 | -74.05056 | 15370 ft | 242 kts | 25° |
| 2026-05-04 01:42 | 4.84840 | -74.04476 | 15870 ft | 251 kts | 21° |
| 2026-05-04 01:43 | 4.86511 | -74.03909 | 16530 ft | 255 kts | 25° |
| 2026-05-04 01:43 | 4.88188 | -74.03269 | 17059 ft | 268 kts | 25° |
| 2026-05-04 01:43 | 4.90064 | -74.02613 | 17034 ft | 302 kts | 22° |
| 2026-05-04 01:43 | 4.92163 | -74.01930 | 17033 ft | 332 kts | 21° |
| 2026-05-04 01:44 | 4.94438 | -74.01171 | 17030 ft | 358 kts | 22° |
| 2026-05-04 01:44 | 4.96876 | -74.00334 | 17034 ft | 380 kts | 22° |
| 2026-05-04 01:44 | 4.99403 | -73.99474 | 17005 ft | 384 kts | 21° |
| 2026-05-04 01:44 | 5.01938 | -73.98636 | 16994 ft | 384 kts | 20° |
| 2026-05-04 01:45 | 5.04540 | -73.97976 | 16991 ft | 387 kts | 17° |
| 2026-05-04 01:45 | 5.07156 | -73.97344 | 16992 ft | 386 kts | 17° |
| 2026-05-04 01:45 | 5.12376 | -73.96034 | 16989 ft | 387 kts | 17° |
| 2026-05-04 01:46 | 5.14983 | -73.95383 | 16956 ft | 386 kts | 17° |
| 2026-05-04 01:46 | 5.17592 | -73.94739 | 16957 ft | 386 kts | 17° |
| 2026-05-04 01:46 | 5.20206 | -73.94089 | 16962 ft | 387 kts | 17° |
| 2026-05-04 01:46 | 5.22823 | -73.93435 | 16953 ft | 387 kts | 17° |
| 2026-05-04 01:47 | 5.25432 | -73.92785 | 16982 ft | 386 kts | 17° |
| 2026-05-04 01:47 | 5.28058 | -73.92131 | 17107 ft | 391 kts | 17° |
| 2026-05-04 01:47 | 5.30695 | -73.91475 | 17745 ft | 391 kts | 17° |
| 2026-05-04 01:47 | 5.33346 | -73.90815 | 18331 ft | 395 kts | 17° |
| 2026-05-04 01:48 | 5.36025 | -73.90146 | 18938 ft | 398 kts | 17° |
| 2026-05-04 01:48 | 5.38727 | -73.89472 | 19497 ft | 402 kts | 17° |
| 2026-05-04 01:48 | 5.41457 | -73.88793 | 20072 ft | 405 kts | 17° |
| 2026-05-04 01:48 | 5.44208 | -73.88109 | 20647 ft | 408 kts | 17° |
| 2026-05-04 01:49 | 5.47005 | -73.87410 | 20922 ft | 420 kts | 17° |
| 2026-05-04 01:49 | 5.49838 | -73.86703 | 20914 ft | 418 kts | 16° |
| 2026-05-04 01:49 | 5.52625 | -73.85944 | 20901 ft | 412 kts | 21° |
| 2026-05-04 01:49 | 5.55179 | -73.84762 | 20912 ft | 408 kts | 31° |
| 2026-05-04 01:50 | 5.57649 | -73.83349 | 20879 ft | 409 kts | 32° |
| 2026-05-04 01:50 | 5.60137 | -73.81943 | 21026 ft | 412 kts | 31° |
| 2026-05-04 01:50 | 5.62635 | -73.80543 | 21583 ft | 412 kts | 31° |
| 2026-05-04 01:50 | 5.65143 | -73.79123 | 22121 ft | 416 kts | 31° |
| 2026-05-04 01:51 | 5.67671 | -73.77685 | 22689 ft | 419 kts | 31° |
| 2026-05-04 01:51 | 5.70255 | -73.76222 | 23257 ft | 424 kts | 31° |
| 2026-05-04 01:51 | 5.72838 | -73.74764 | 23822 ft | 428 kts | 31° |
| 2026-05-04 01:51 | 5.75412 | -73.73308 | 24312 ft | 432 kts | 31° |
| 2026-05-04 01:52 | 5.78042 | -73.71818 | 24800 ft | 436 kts | 31° |
| 2026-05-04 01:52 | 5.80693 | -73.70315 | 25294 ft | 439 kts | 31° |
| 2026-05-04 01:52 | 5.83368 | -73.68802 | 25780 ft | 443 kts | 31° |
| 2026-05-04 01:52 | 5.86066 | -73.67275 | 26210 ft | 448 kts | 30° |
| 2026-05-04 01:53 | 5.88791 | -73.65730 | 26680 ft | 452 kts | 30° |
| 2026-05-04 01:53 | 5.91538 | -73.64175 | 27197 ft | 455 kts | 30° |
| 2026-05-04 01:53 | 5.94308 | -73.62606 | 27684 ft | 459 kts | 30° |
| 2026-05-04 01:53 | 5.97102 | -73.61023 | 28174 ft | 463 kts | 30° |
| 2026-05-04 01:54 | 5.99918 | -73.59427 | 28609 ft | 467 kts | 30° |
| 2026-05-04 01:54 | 6.02758 | -73.57818 | 29079 ft | 471 kts | 30° |
| 2026-05-04 01:54 | 6.05615 | -73.56199 | 29526 ft | 474 kts | 30° |
| 2026-05-04 01:54 | 6.08499 | -73.54563 | 29967 ft | 478 kts | 30° |
| 2026-05-04 01:55 | 6.11406 | -73.52916 | 30369 ft | 481 kts | 30° |
| 2026-05-04 01:55 | 6.14331 | -73.51258 | 30707 ft | 484 kts | 30° |
| 2026-05-04 01:55 | 6.17272 | -73.49590 | 31109 ft | 486 kts | 30° |
| 2026-05-04 01:55 | 6.20212 | -73.47923 | 31690 ft | 484 kts | 30° |
| 2026-05-04 01:56 | 6.23136 | -73.46264 | 32262 ft | 481 kts | 31° |
| 2026-05-04 01:56 | 6.26050 | -73.44611 | 32797 ft | 480 kts | 30° |
| 2026-05-04 01:56 | 6.28956 | -73.42963 | 33294 ft | 479 kts | 30° |
| 2026-05-04 01:56 | 6.31853 | -73.41319 | 33832 ft | 478 kts | 31° |
| 2026-05-04 01:57 | 6.34742 | -73.39679 | 34349 ft | 476 kts | 30° |
| 2026-05-04 01:57 | 6.37622 | -73.38045 | 34821 ft | 475 kts | 30° |
| 2026-05-04 01:57 | 6.40487 | -73.36419 | 35307 ft | 473 kts | 30° |
| 2026-05-04 01:57 | 6.43356 | -73.34790 | 35761 ft | 472 kts | 30° |
| 2026-05-04 01:58 | 6.46204 | -73.33172 | 36240 ft | 471 kts | 30° |
| 2026-05-04 01:58 | 6.49051 | -73.31556 | 36737 ft | 469 kts | 30° |
| 2026-05-04 01:58 | 6.51888 | -73.29944 | 37232 ft | 468 kts | 30° |
| 2026-05-04 01:58 | 6.54720 | -73.28335 | 37715 ft | 467 kts | 30° |
| 2026-05-04 01:59 | 6.57548 | -73.26729 | 38202 ft | 466 kts | 30° |
| 2026-05-04 01:59 | 6.60367 | -73.25128 | 38725 ft | 465 kts | 29° |
| 2026-05-04 01:59 | 6.63181 | -73.23529 | 39076 ft | 466 kts | 30° |
| 2026-05-04 01:59 | 6.66038 | -73.21905 | 39084 ft | 477 kts | 30° |
| 2026-05-04 02:00 | 6.71930 | -73.18556 | 39085 ft | 495 kts | 30° |
| 2026-05-04 02:00 | 6.78016 | -73.15095 | 39089 ft | 510 kts | 30° |
| 2026-05-04 02:01 | 6.84253 | -73.11548 | 39067 ft | 519 kts | 30° |
| 2026-05-04 02:01 | 6.90589 | -73.07953 | 39105 ft | 525 kts | 29° |
| 2026-05-04 02:02 | 6.97041 | -73.04457 | 39111 ft | 527 kts | 28° |
| 2026-05-04 02:02 | 7.03467 | -73.00896 | 39116 ft | 527 kts | 29° |
| 2026-05-04 02:03 | 7.09901 | -72.97370 | 39115 ft | 526 kts | 28° |
| 2026-05-04 02:03 | 7.16280 | -72.93855 | 39157 ft | 524 kts | 29° |
| 2026-05-04 02:04 | 7.22645 | -72.90352 | 39159 ft | 522 kts | 29° |
| 2026-05-04 02:04 | 7.29012 | -72.86848 | 39163 ft | 518 kts | 30° |
| 2026-05-04 02:05 | 7.35343 | -72.83357 | 39160 ft | 519 kts | 30° |
| 2026-05-04 02:05 | 7.41684 | -72.79867 | 39166 ft | 519 kts | 30° |
| 2026-05-04 02:06 | 7.48025 | -72.76368 | 39168 ft | 520 kts | 30° |
| 2026-05-04 02:06 | 7.54371 | -72.72872 | 39135 ft | 519 kts | 30° |
| 2026-05-04 02:07 | 7.60713 | -72.69372 | 39136 ft | 520 kts | 30° |
| 2026-05-04 02:07 | 7.67082 | -72.65859 | 39128 ft | 524 kts | 30° |
| 2026-05-04 02:08 | 7.73490 | -72.62322 | 39094 ft | 525 kts | 30° |
| 2026-05-04 02:08 | 7.79898 | -72.58785 | 39038 ft | 526 kts | 30° |
| 2026-05-04 02:09 | 7.86353 | -72.55219 | 39020 ft | 531 kts | 30° |
| 2026-05-04 02:09 | 7.92827 | -72.51642 | 39023 ft | 530 kts | 30° |
| 2026-05-04 02:10 | 7.99392 | -72.48268 | 39021 ft | 526 kts | 27° |
| 2026-05-04 02:10 | 8.05891 | -72.44920 | 39020 ft | 525 kts | 27° |
| 2026-05-04 02:11 | 8.12422 | -72.41581 | 39015 ft | 526 kts | 27° |
| 2026-05-04 02:11 | 8.18948 | -72.38228 | 39025 ft | 526 kts | 27° |
| 2026-05-04 02:12 | 8.25383 | -72.34708 | 38995 ft | 526 kts | 30° |
| 2026-05-04 02:12 | 8.31792 | -72.31136 | 39000 ft | 526 kts | 29° |
| 2026-05-04 02:13 | 8.38200 | -72.27551 | 38979 ft | 527 kts | 29° |
| 2026-05-04 02:13 | 8.44612 | -72.23969 | 38995 ft | 527 kts | 28° |
| 2026-05-04 02:14 | 8.51031 | -72.20379 | 38998 ft | 527 kts | 28° |
| 2026-05-04 02:14 | 8.57447 | -72.16790 | 38976 ft | 527 kts | 28° |
| 2026-05-04 02:15 | 8.63856 | -72.13203 | 38977 ft | 527 kts | 28° |
| 2026-05-04 02:15 | 8.70279 | -72.09607 | 38960 ft | 528 kts | 29° |
| 2026-05-04 02:16 | 8.76712 | -72.06005 | 38963 ft | 528 kts | 29° |
| 2026-05-04 02:16 | 8.83141 | -72.02402 | 38958 ft | 528 kts | 29° |
| 2026-05-04 02:17 | 8.89570 | -71.98799 | 38958 ft | 528 kts | 29° |
| 2026-05-04 02:17 | 8.95994 | -71.95196 | 38958 ft | 528 kts | 29° |
| 2026-05-04 02:18 | 9.02492 | -71.91730 | 38960 ft | 530 kts | 27° |
| 2026-05-04 02:18 | 9.09031 | -71.88288 | 38964 ft | 528 kts | 27° |
| 2026-05-04 02:19 | 9.15557 | -71.84882 | 38961 ft | 528 kts | 27° |
| 2026-05-04 02:19 | 9.22081 | -71.81457 | 38961 ft | 528 kts | 27° |
| 2026-05-04 02:20 | 9.28603 | -71.78043 | 38962 ft | 528 kts | 27° |
| 2026-05-04 02:20 | 9.35129 | -71.74620 | 38962 ft | 528 kts | 28° |
| 2026-05-04 02:21 | 9.41634 | -71.71209 | 38959 ft | 526 kts | 28° |
| 2026-05-04 02:21 | 9.48136 | -71.67797 | 38960 ft | 527 kts | 28° |
| 2026-05-04 02:22 | 9.54642 | -71.64381 | 38952 ft | 526 kts | 27° |
| 2026-05-04 02:22 | 9.61147 | -71.60965 | 38952 ft | 527 kts | 28° |
| 2026-05-04 02:23 | 9.67647 | -71.57549 | 38955 ft | 526 kts | 27° |
| 2026-05-04 02:23 | 9.74164 | -71.54125 | 38947 ft | 530 kts | 28° |
| 2026-05-04 02:24 | 9.80707 | -71.50683 | 38949 ft | 529 kts | 28° |
| 2026-05-04 02:24 | 9.87247 | -71.47243 | 38949 ft | 529 kts | 28° |
| 2026-05-04 02:25 | 9.92686 | -71.44379 | 38944 ft | 530 kts | 28° |
| 2026-05-04 02:25 | 9.99226 | -71.40936 | 38944 ft | 530 kts | 28° |
| 2026-05-04 02:26 | 10.05764 | -71.37491 | 38944 ft | 529 kts | 28° |
| 2026-05-04 02:26 | 10.12294 | -71.34048 | 38943 ft | 528 kts | 28° |
| 2026-05-04 02:27 | 10.18815 | -71.30605 | 38947 ft | 529 kts | 28° |
| 2026-05-04 02:27 | 10.25345 | -71.27158 | 38947 ft | 529 kts | 28° |
| 2026-05-04 02:28 | 10.31874 | -71.23708 | 38944 ft | 529 kts | 28° |
| 2026-05-04 02:28 | 10.38403 | -71.20258 | 38945 ft | 529 kts | 28° |
| 2026-05-04 02:29 | 10.52074 | -71.13034 | 38948 ft | 529 kts | 28° |
| 2026-05-04 02:30 | 10.58605 | -71.09583 | 38948 ft | 529 kts | 28° |
| 2026-05-04 02:30 | 10.65135 | -71.06131 | 38948 ft | 529 kts | 28° |
| 2026-05-04 02:31 | 10.71585 | -71.02536 | 38943 ft | 529 kts | 31° |
| 2026-05-04 02:31 | 10.77827 | -70.98669 | 38951 ft | 529 kts | 31° |
| 2026-05-04 02:32 | 10.84153 | -70.94852 | 38950 ft | 529 kts | 31° |
| 2026-05-04 02:32 | 10.90451 | -70.90986 | 38950 ft | 529 kts | 31° |
| 2026-05-04 02:33 | 10.96767 | -70.87143 | 38949 ft | 530 kts | 31° |
| 2026-05-04 02:33 | 11.03111 | -70.83264 | 38951 ft | 532 kts | 31° |
| 2026-05-04 02:34 | 11.09438 | -70.79399 | 38952 ft | 529 kts | 30° |
| 2026-05-04 02:34 | 11.15748 | -70.75543 | 38952 ft | 529 kts | 31° |
| 2026-05-04 02:35 | 11.22067 | -70.71677 | 38955 ft | 530 kts | 30° |
| 2026-05-04 02:35 | 11.28386 | -70.67811 | 38958 ft | 530 kts | 30° |
| 2026-05-04 02:36 | 11.34704 | -70.63942 | 38953 ft | 530 kts | 31° |
| 2026-05-04 02:36 | 11.41018 | -70.60075 | 38962 ft | 528 kts | 30° |
| 2026-05-04 02:37 | 11.47314 | -70.56217 | 38960 ft | 528 kts | 30° |
| 2026-05-04 02:37 | 11.53686 | -70.52495 | 38961 ft | 529 kts | 30° |
| 2026-05-04 02:38 | 11.60053 | -70.48731 | 38960 ft | 529 kts | 28° |
| 2026-05-04 02:38 | 11.66441 | -70.45011 | 38964 ft | 529 kts | 28° |
| 2026-05-04 02:39 | 11.72790 | -70.41220 | 38972 ft | 528 kts | 30° |
| 2026-05-04 02:39 | 11.79123 | -70.37415 | 38975 ft | 528 kts | 28° |
| 2026-05-04 02:40 | 11.85470 | -70.33628 | 38978 ft | 528 kts | 29° |
| 2026-05-04 02:40 | 11.91800 | -70.29822 | 38982 ft | 528 kts | 29° |
| 2026-05-04 02:41 | 11.98145 | -70.26028 | 38979 ft | 528 kts | 29° |
| 2026-05-04 02:41 | 12.04481 | -70.22219 | 38982 ft | 528 kts | 29° |
| 2026-05-04 02:42 | 12.10836 | -70.18409 | 38984 ft | 529 kts | 29° |
| 2026-05-04 02:42 | 12.17166 | -70.14604 | 38981 ft | 528 kts | 28° |
| 2026-05-04 02:43 | 12.23503 | -70.10798 | 38974 ft | 528 kts | 28° |
| 2026-05-04 02:43 | 12.29799 | -70.07012 | 38974 ft | 528 kts | 29° |
| 2026-05-04 02:44 | 12.36118 | -70.03174 | 38975 ft | 529 kts | 30° |
| 2026-05-04 02:44 | 12.42434 | -69.99283 | 38974 ft | 531 kts | 29° |
| 2026-05-04 02:45 | 12.48778 | -69.95403 | 38969 ft | 530 kts | 31° |
| 2026-05-04 02:45 | 12.54438 | -69.90534 | 38958 ft | 534 kts | 45° |
| 2026-05-04 02:46 | 12.58664 | -69.85868 | 38967 ft | 534 kts | 45° |
| 2026-05-04 02:46 | 12.63964 | -69.80579 | 38975 ft | 531 kts | 43° |
| 2026-05-04 02:47 | 12.69143 | -69.75158 | 38988 ft | 533 kts | 45° |
| 2026-05-04 02:47 | 12.74392 | -69.69774 | 38987 ft | 535 kts | 43° |
| 2026-05-04 02:48 | 12.79629 | -69.64373 | 38985 ft | 534 kts | 44° |
| 2026-05-04 02:48 | 12.84851 | -69.58963 | 38995 ft | 534 kts | 43° |
| 2026-05-04 02:49 | 12.90091 | -69.53572 | 38996 ft | 534 kts | 44° |
| 2026-05-04 02:49 | 12.95284 | -69.48182 | 38999 ft | 530 kts | 43° |
| 2026-05-04 02:50 | 13.00501 | -69.42802 | 39003 ft | 533 kts | 44° |
| 2026-05-04 02:50 | 13.05680 | -69.37429 | 39002 ft | 533 kts | 44° |
| 2026-05-04 02:51 | 13.10950 | -69.31982 | 39007 ft | 535 kts | 44° |
| 2026-05-04 02:51 | 13.16142 | -69.26594 | 39008 ft | 534 kts | 44° |
| 2026-05-04 02:52 | 13.21376 | -69.21171 | 39006 ft | 535 kts | 44° |
| 2026-05-04 02:52 | 13.26585 | -69.15766 | 39004 ft | 530 kts | 44° |
| 2026-05-04 02:53 | 13.31771 | -69.10382 | 39008 ft | 531 kts | 44° |
| 2026-05-04 02:53 | 13.36966 | -69.04988 | 39008 ft | 531 kts | 44° |
| 2026-05-04 02:54 | 13.42160 | -68.99593 | 39011 ft | 531 kts | 44° |
| 2026-05-04 02:54 | 13.47353 | -68.94193 | 39009 ft | 531 kts | 44° |
| 2026-05-04 02:55 | 13.55139 | -68.86091 | 39009 ft | 531 kts | 45° |
| 2026-05-04 02:56 | 13.60343 | -68.80671 | 39012 ft | 533 kts | 44° |
| 2026-05-04 02:56 | 13.65553 | -68.75243 | 39013 ft | 533 kts | 44° |
| 2026-05-04 02:57 | 13.70756 | -68.69818 | 39014 ft | 533 kts | 43° |
| 2026-05-04 02:57 | 13.75963 | -68.64383 | 39010 ft | 533 kts | 44° |
| 2026-05-04 02:58 | 13.81173 | -68.58942 | 39014 ft | 533 kts | 44° |
| 2026-05-04 02:58 | 13.86354 | -68.53486 | 39015 ft | 533 kts | 44° |
| 2026-05-04 02:59 | 13.91552 | -68.48018 | 39012 ft | 535 kts | 44° |
| 2026-05-04 02:59 | 13.96723 | -68.42575 | 39017 ft | 530 kts | 44° |
| 2026-05-04 03:00 | 14.01888 | -68.37168 | 39017 ft | 530 kts | 43° |
| 2026-05-04 03:00 | 14.07061 | -68.31746 | 39020 ft | 530 kts | 43° |
| 2026-05-04 03:01 | 14.12227 | -68.26327 | 39021 ft | 530 kts | 43° |
| 2026-05-04 03:01 | 14.17443 | -68.20956 | 39010 ft | 529 kts | 39° |
| 2026-05-04 03:02 | 14.23564 | -68.16834 | 39002 ft | 526 kts | 22° |
| 2026-05-04 03:02 | 14.30351 | -68.14181 | 39029 ft | 520 kts | 17° |
| 2026-05-04 03:03 | 14.37106 | -68.11471 | 39022 ft | 522 kts | 22° |
| 2026-05-04 03:03 | 14.43839 | -68.08554 | 39026 ft | 521 kts | 19° |
| 2026-05-04 03:04 | 14.50600 | -68.05834 | 39022 ft | 522 kts | 20° |
| 2026-05-04 03:04 | 14.57258 | -68.02972 | 39024 ft | 519 kts | 19° |
| 2026-05-04 03:05 | 14.64014 | -68.00214 | 39025 ft | 519 kts | 19° |
| 2026-05-04 03:05 | 14.70696 | -67.97378 | 39027 ft | 519 kts | 19° |
| 2026-05-04 03:06 | 14.77392 | -67.94606 | 39027 ft | 519 kts | 19° |
| 2026-05-04 03:06 | 14.84039 | -67.91807 | 39039 ft | 519 kts | 19° |
| 2026-05-04 03:07 | 14.90737 | -67.89012 | 39028 ft | 519 kts | 19° |
| 2026-05-04 03:07 | 14.97433 | -67.86201 | 39030 ft | 519 kts | 19° |
| 2026-05-04 03:08 | 15.04134 | -67.83394 | 39035 ft | 519 kts | 19° |
| 2026-05-04 03:08 | 15.10832 | -67.80582 | 39033 ft | 519 kts | 19° |
| 2026-05-04 03:09 | 15.17528 | -67.77771 | 39034 ft | 519 kts | 19° |
| 2026-05-04 03:09 | 15.24228 | -67.74955 | 39035 ft | 520 kts | 18° |
| 2026-05-04 03:10 | 15.30922 | -67.72141 | 39035 ft | 520 kts | 18° |
| 2026-05-04 03:10 | 15.37618 | -67.69323 | 39042 ft | 520 kts | 18° |
| 2026-05-04 03:11 | 15.44320 | -67.66502 | 39040 ft | 519 kts | 18° |
| 2026-05-04 03:11 | 15.51012 | -67.63682 | 39047 ft | 519 kts | 18° |
| 2026-05-04 03:12 | 15.57713 | -67.60856 | 39047 ft | 520 kts | 18° |
| 2026-05-04 03:12 | 15.64414 | -67.58029 | 39045 ft | 520 kts | 18° |
| 2026-05-04 03:13 | 15.71117 | -67.55198 | 39048 ft | 520 kts | 18° |
| 2026-05-04 03:13 | 15.77808 | -67.52371 | 39047 ft | 519 kts | 18° |
| 2026-05-04 03:14 | 15.84496 | -67.49544 | 39045 ft | 519 kts | 18° |
| 2026-05-04 03:14 | 15.91224 | -67.46806 | 39041 ft | 519 kts | 17° |
| 2026-05-04 03:15 | 15.97936 | -67.44050 | 39048 ft | 519 kts | 18° |
| 2026-05-04 03:15 | 16.04657 | -67.41291 | 39047 ft | 519 kts | 17° |
| 2026-05-04 03:16 | 16.11376 | -67.38536 | 39054 ft | 519 kts | 18° |
| 2026-05-04 03:16 | 16.18103 | -67.35769 | 39051 ft | 521 kts | 17° |
| 2026-05-04 03:17 | 16.24844 | -67.33000 | 39052 ft | 521 kts | 18° |
| 2026-05-04 03:17 | 16.31592 | -67.30221 | 39053 ft | 521 kts | 18° |
| 2026-05-04 03:18 | 16.38338 | -67.27445 | 39052 ft | 521 kts | 18° |
| 2026-05-04 03:18 | 16.45078 | -67.24667 | 39064 ft | 522 kts | 18° |
| 2026-05-04 03:19 | 16.51840 | -67.21879 | 39056 ft | 523 kts | 18° |
| 2026-05-04 03:19 | 16.58603 | -67.19087 | 39059 ft | 523 kts | 18° |
| 2026-05-04 03:20 | 16.65365 | -67.16295 | 39059 ft | 523 kts | 18° |
| 2026-05-04 03:20 | 16.72126 | -67.13500 | 39063 ft | 523 kts | 18° |
| 2026-05-04 03:21 | 16.78868 | -67.10710 | 38736 ft | 514 kts | 18° |
| 2026-05-04 03:21 | 16.82156 | -67.09346 | 38014 ft | 501 kts | 18° |
| 2026-05-04 03:21 | 16.85351 | -67.08024 | 37370 ft | 486 kts | 18° |
| 2026-05-04 03:21 | 16.88447 | -67.06743 | 36754 ft | 472 kts | 18° |
| 2026-05-04 03:22 | 16.91461 | -67.05495 | 36154 ft | 461 kts | 19° |
| 2026-05-04 03:22 | 16.94423 | -67.04269 | 35559 ft | 456 kts | 19° |
| 2026-05-04 03:22 | 16.97371 | -67.03047 | 34968 ft | 457 kts | 19° |
| 2026-05-04 03:22 | 17.00361 | -67.01809 | 34360 ft | 467 kts | 19° |
| 2026-05-04 03:23 | 17.03408 | -67.00545 | 33739 ft | 476 kts | 20° |
| 2026-05-04 03:23 | 17.06511 | -66.99254 | 33091 ft | 482 kts | 20° |
| 2026-05-04 03:23 | 17.09633 | -66.97946 | 32458 ft | 486 kts | 20° |
| 2026-05-04 03:23 | 17.12784 | -66.96620 | 31814 ft | 489 kts | 20° |
| 2026-05-04 03:24 | 17.15939 | -66.95298 | 31167 ft | 491 kts | 20° |
| 2026-05-04 03:24 | 17.19124 | -66.93967 | 30519 ft | 494 kts | 21° |
| 2026-05-04 03:24 | 17.22314 | -66.92631 | 29827 ft | 493 kts | 21° |
| 2026-05-04 03:24 | 17.25470 | -66.91305 | 29176 ft | 484 kts | 21° |
| 2026-05-04 03:25 | 17.28567 | -66.90004 | 28544 ft | 477 kts | 21° |
| 2026-05-04 03:25 | 17.31622 | -66.88723 | 27921 ft | 469 kts | 21° |
| 2026-05-04 03:25 | 17.34629 | -66.87462 | 27309 ft | 462 kts | 22° |
| 2026-05-04 03:25 | 17.37597 | -66.86215 | 26708 ft | 457 kts | 22° |
| 2026-05-04 03:26 | 17.40537 | -66.84979 | 26106 ft | 453 kts | 22° |
| 2026-05-04 03:26 | 17.43447 | -66.83756 | 25511 ft | 448 kts | 22° |
| 2026-05-04 03:26 | 17.46327 | -66.82546 | 24925 ft | 443 kts | 22° |
| 2026-05-04 03:26 | 17.49173 | -66.81349 | 24339 ft | 438 kts | 22° |
| 2026-05-04 03:27 | 17.51986 | -66.80165 | 23765 ft | 433 kts | 23° |
| 2026-05-04 03:27 | 17.54769 | -66.78994 | 23150 ft | 428 kts | 23° |
| 2026-05-04 03:27 | 17.56590 | -66.78227 | 22782 ft | 426 kts | 22° |
| 2026-05-04 03:27 | 17.59337 | -66.77070 | 22218 ft | 425 kts | 22° |
| 2026-05-04 03:28 | 17.62074 | -66.75917 | 21663 ft | 423 kts | 22° |
| 2026-05-04 03:28 | 17.64801 | -66.74768 | 21107 ft | 421 kts | 22° |
| 2026-05-04 03:28 | 17.67516 | -66.73624 | 20559 ft | 419 kts | 21° |
| 2026-05-04 03:28 | 17.70222 | -66.72483 | 20005 ft | 419 kts | 21° |
| 2026-05-04 03:29 | 17.72921 | -66.71358 | 19457 ft | 416 kts | 21° |
| 2026-05-04 03:29 | 17.75613 | -66.70257 | 18910 ft | 415 kts | 20° |
| 2026-05-04 03:29 | 17.78287 | -66.69160 | 18370 ft | 411 kts | 20° |
| 2026-05-04 03:29 | 17.80939 | -66.68058 | 17728 ft | 408 kts | 20° |
| 2026-05-04 03:30 | 17.83555 | -66.66970 | 17161 ft | 400 kts | 20° |
| 2026-05-04 03:30 | 17.86130 | -66.65906 | 16637 ft | 396 kts | 20° |
| 2026-05-04 03:30 | 17.88680 | -66.64854 | 16120 ft | 392 kts | 21° |
| 2026-05-04 03:30 | 17.91207 | -66.63808 | 15607 ft | 388 kts | 21° |
| 2026-05-04 03:31 | 17.93705 | -66.62771 | 15100 ft | 384 kts | 21° |
| 2026-05-04 03:31 | 17.96178 | -66.61746 | 14584 ft | 380 kts | 21° |
| 2026-05-04 03:31 | 17.98631 | -66.60731 | 14095 ft | 378 kts | 21° |
| 2026-05-04 03:31 | 18.01062 | -66.59723 | 13570 ft | 374 kts | 22° |
| 2026-05-04 03:32 | 18.03470 | -66.58724 | 13074 ft | 371 kts | 22° |
| 2026-05-04 03:32 | 18.05861 | -66.57732 | 12586 ft | 368 kts | 22° |
| 2026-05-04 03:32 | 18.08234 | -66.56748 | 12103 ft | 365 kts | 22° |
| 2026-05-04 03:32 | 18.10585 | -66.55772 | 11630 ft | 362 kts | 22° |
| 2026-05-04 03:33 | 18.12905 | -66.54808 | 11150 ft | 353 kts | 22° |
| 2026-05-04 03:33 | 18.15134 | -66.53883 | 10698 ft | 335 kts | 22° |
| 2026-05-04 03:33 | 18.17242 | -66.53009 | 10276 ft | 316 kts | 22° |
| 2026-05-04 03:33 | 18.19239 | -66.52179 | 9853 ft | 301 kts | 23° |
| 2026-05-04 03:34 | 18.21147 | -66.51386 | 9454 ft | 289 kts | 23° |
| 2026-05-04 03:34 | 18.22992 | -66.50614 | 9080 ft | 281 kts | 24° |
| 2026-05-04 03:34 | 18.24579 | -66.49468 | 8651 ft | 279 kts | 49° |
| 2026-05-04 03:34 | 18.25708 | -66.47825 | 8347 ft | 277 kts | 57° |
| 2026-05-04 03:35 | 18.26770 | -66.46116 | 7996 ft | 280 kts | 58° |
| 2026-05-04 03:35 | 18.27845 | -66.44406 | 7627 ft | 281 kts | 57° |
| 2026-05-04 03:35 | 18.28938 | -66.42700 | 7252 ft | 280 kts | 57° |
| 2026-05-04 03:35 | 18.30014 | -66.41013 | 6989 ft | 273 kts | 58° |
| 2026-05-04 03:36 | 18.31042 | -66.39392 | 6984 ft | 262 kts | 58° |
| 2026-05-04 03:36 | 18.32057 | -66.37788 | 6983 ft | 267 kts | 58° |
| 2026-05-04 03:36 | 18.33092 | -66.36156 | 6746 ft | 266 kts | 58° |
| 2026-05-04 03:36 | 18.34134 | -66.34513 | 5951 ft | 272 kts | 58° |
| 2026-05-04 03:37 | 18.35174 | -66.32876 | 5404 ft | 266 kts | 58° |
| 2026-05-04 03:37 | 18.36195 | -66.31267 | 4802 ft | 263 kts | 58° |
| 2026-05-04 03:37 | 18.37215 | -66.29662 | 4348 ft | 267 kts | 59° |
| 2026-05-04 03:37 | 18.38232 | -66.28065 | 4014 ft | 259 kts | 58° |
| 2026-05-04 03:38 | 18.39226 | -66.26502 | 3682 ft | 256 kts | 59° |
| 2026-05-04 03:38 | 18.40212 | -66.24950 | 3334 ft | 254 kts | 59° |
| 2026-05-04 03:38 | 18.41192 | -66.23411 | 3006 ft | 253 kts | 59° |
| 2026-05-04 03:38 | 18.42168 | -66.21872 | 2665 ft | 248 kts | 59° |
| 2026-05-04 03:39 | 18.43058 | -66.20405 | 2312 ft | 226 kts | 64° |
| 2026-05-04 03:39 | 18.43377 | -66.18896 | 2201 ft | 199 kts | 89° |
| 2026-05-04 03:39 | 18.43376 | -66.17535 | 2247 ft | 166 kts | 91° |
| 2026-05-04 03:39 | 18.43382 | -66.16481 | 2241 ft | 125 kts | 91° |
| 2026-05-04 03:40 | 18.43382 | -66.15626 | 2209 ft | 112 kts | 92° |
| 2026-05-04 03:40 | 18.43381 | -66.14829 | 2258 ft | 107 kts | 91° |
| 2026-05-04 03:40 | 18.43379 | -66.14004 | 2263 ft | 117 kts | 92° |
| 2026-05-04 03:40 | 18.43378 | -66.13127 | 2136 ft | 122 kts | 92° |
| 2026-05-04 03:41 | 18.43377 | -66.12227 | 1983 ft | 124 kts | 91° |
| 2026-05-04 03:41 | 18.43376 | -66.11323 | 1821 ft | 123 kts | 92° |
| 2026-05-04 03:41 | 18.43375 | -66.10424 | 1655 ft | 122 kts | 91° |
| 2026-05-04 03:41 | 18.43373 | -66.09527 | 1492 ft | 122 kts | 91° |
| 2026-05-04 03:42 | 18.43371 | -66.08630 | 1333 ft | 123 kts | 92° |
| 2026-05-04 03:42 | 18.43370 | -66.07724 | 1177 ft | 124 kts | 91° |
| 2026-05-04 03:42 | 18.43368 | -66.06819 | 1038 ft | 124 kts | 91° |
| 2026-05-04 03:42 | 18.43366 | -66.05905 | 877 ft | 125 kts | 91° |
| 2026-05-04 03:43 | 18.43363 | -66.04988 | 737 ft | 126 kts | 90° |
| 2026-05-04 03:43 | 18.43368 | -66.04058 | 496 ft | 127 kts | 90° |
| 2026-05-04 03:43 | 18.43362 | -66.03152 | 349 ft | 122 kts | 91° |
| 2026-05-04 03:43 | 18.43361 | -66.02269 | 232 ft | 121 kts | 90° |
| 2026-05-04 03:44 | 18.43360 | -66.01380 | 97 ft | 122 kts | 90° |
| 2026-05-04 03:44 | 18.43354 | -66.00520 | 14 ft | 104 kts | 90° |
| 2026-05-04 03:44 | 18.43356 | -65.99968 | 13 ft | 47 kts | 90° |
| 2026-05-04 03:44 | 18.43354 | -65.99728 | 13 ft | 31 kts | 91° |
| 2026-05-04 03:45 | 18.43380 | -65.99571 | 13 ft | 12 kts | 54° |
| 2026-05-04 03:45 | 18.43434 | -65.99549 | 13 ft | 8 kts | 4° |
| 2026-05-04 03:45 | 18.43445 | -65.99549 | 13 ft | 0 kts | 1° |
| 2026-05-04 03:46 | 18.43459 | -65.99548 | 13 ft | 7 kts | 2° |
| 2026-05-04 03:46 | 18.43511 | -65.99546 | 13 ft | 8 kts | 359° |
| 2026-05-04 03:47 | 18.43554 | -65.99567 | 13 ft | 7 kts | 306° |
| 2026-05-04 03:47 | 18.43562 | -65.99626 | 13 ft | 10 kts | 270° |
| 2026-05-04 03:47 | 18.43562 | -65.99707 | 13 ft | 12 kts | 270° |
| 2026-05-04 03:47 | 18.43562 | -65.99801 | 13 ft | 13 kts | 271° |
| 2026-05-04 03:48 | 18.43564 | -65.99886 | 13 ft | 9 kts | 271° |
| 2026-05-04 03:48 | 18.43562 | -65.99947 | 13 ft | 8 kts | 270° |
| 2026-05-04 03:48 | 18.43595 | -65.99976 | 14 ft | 7 kts | 0° |
| 2026-05-04 03:48 | 18.43641 | -65.99975 | 14 ft | 6 kts | 0° |
| 2026-05-04 03:49 | 18.43683 | -65.99978 | 14 ft | 5 kts | 339° |
| 2026-05-04 03:49 | 18.43717 | -65.99993 | 14 ft | 5 kts | 339° |
| 2026-05-04 03:49 | 18.43750 | -66.00006 | 14 ft | 5 kts | 337° |
| 2026-05-04 03:49 | 18.43788 | -66.00023 | 14 ft | 6 kts | 336° |
| 2026-05-04 03:50 | 18.43829 | -66.00042 | 14 ft | 7 kts | 338° |
| 2026-05-04 03:50 | 18.43872 | -66.00062 | 14 ft | 7 kts | 333° |
| 2026-05-04 03:50 | 18.43914 | -66.00082 | 14 ft | 8 kts | 337° |
| 2026-05-04 03:50 | 18.43968 | -66.00104 | 14 ft | 8 kts | 338° |
| 2026-05-04 03:51 | 18.44014 | -66.00107 | 14 ft | 4 kts | 47° |
| 2026-05-04 03:51 | 18.44019 | -66.00081 | 14 ft | 4 kts | 77° |
| 2026-05-04 03:51 | 18.44025 | -66.00055 | 14 ft | 3 kts | 91° |
| 2026-05-04 03:51 | 18.44013 | -66.00043 | 14 ft | 2 kts | 155° |
| 2026-05-04 03:52 | 18.44007 | -66.00040 | 14 ft | 0 kts | 156° |